Airfield :
LOGIN :

Register | Disclaimer

   EN    FR    IT 

 










Legend :    VFR   Marginal VFR   IFR   Intensive IFR   Very Intensive IFR
Visi :
Ceiling :
>= 8 km
>= 3000ft
5 to 8 km
1000 to 3000 ft
1500m to 5 km
500 to 1000 ft
800 to 1500m
200 to 500 ft
< 800m
< 200 ft
Symbols :   Thunderstorms  Fog  Heavy snow  Heavy precipitations  Wind > 20 kt
SIGMETs :     Misc.  Thunderstorms  Icing  Turbulence  Mountain Waves  Volcanic Ashes






- Airport Elevation : 290 ft
- IATA code : OSI


LDOS - Osijek

CURRENT METAR :
  • 210530Z 22004KT 2000 BR SCT007 OVC010 00/M00 Q1046 R11/19//94

EXPIRED METARs :
  • 210500Z 21004KT 2000 BR SCT007 OVC010 00/M00 Q1046 R11/19//94
  • 210430Z VRB02KT 2000 BR SCT007 OVC010 M00/M00 Q1046 R11/19//94
  • 210400Z 00000KT 1500 BR SCT007 OVC010 00/M00 Q1046 R11/19//94
  • 210330Z VRB01KT 1500 BR SCT007 OVC010 00/M00 Q1046 R11/19//94
  • 210300Z VRB02KT 1500 BR SCT007 OVC010 00/00 Q1046 R11/19//94

TAF TAF LDOS
Valid from the 21 at 06:00 until the 22 at 06:00 UTC


210525Z 2106/2206 VRB02KT 3000 BR SCT010 BKN030 TX02/2114Z TNM07/2203Z
TEMPO 2106/2115 1500 BKN005 OVC010
PROB30 2113/2118 6000 NSW
PROB40 2120/2200 0300 FZFG VV002
BECMG 2200/2202 0300 FZFG VV002



MET'MAP, your aeronautical weather chart ! - Copyright ORBIFLY December 2007 - Disclaimer

ORBIFLY MET'MAP TEAM :

Programming & Development : Alexandra Zaïnal
Concept & original design : Baudouin d'Aumeries
Assistance for programming : Marc-Olivier Méhu
Technical & hardware support : Manuel Goepfert

Contact : metmap@orbifly.com




SOURCES & CREDITS :

   NOAA